createdAt,value
2022-10-29T00:00:16.021Z,73.65
2022-10-29T00:02:42.531Z,73.81
2022-10-29T00:05:09.363Z,73.81
2022-10-29T00:07:35.805Z,74.02
2022-10-29T00:10:02.480Z,73.51
2022-10-29T00:12:29.042Z,73.41
2022-10-29T00:14:55.524Z,73.17
2022-10-29T00:17:22.047Z,72.92
2022-10-29T00:19:48.966Z,72.86
2022-10-29T00:22:15.789Z,72.76
2022-10-29T00:24:42.281Z,72.87
2022-10-29T00:27:08.741Z,72.68
2022-10-29T00:29:35.176Z,72.85
2022-10-29T00:32:01.748Z,72.60
2022-10-29T00:34:29.140Z,72.67
2022-10-29T00:36:55.570Z,73.32
2022-10-29T00:39:22.004Z,73.40
2022-10-29T00:41:48.542Z,73.73
2022-10-29T00:44:14.894Z,73.91
2022-10-29T00:46:47.854Z,74.01
2022-10-29T00:49:16.829Z,74.51
2022-10-29T00:51:46.227Z,74.83
2022-10-29T00:54:16.812Z,74.44
2022-10-29T00:56:57.837Z,73.80
2022-10-29T00:59:25.155Z,74.33
2022-10-29T01:01:52.109Z,74.49
2022-10-29T01:04:20.656Z,74.71
2022-10-29T01:06:48.473Z,74.59
2022-10-29T01:09:14.943Z,74.26
2022-10-29T01:12:01.021Z,73.36
2022-10-29T01:15:12.961Z,73.29
2022-10-29T01:18:21.525Z,73.05
2022-10-29T01:21:27.918Z,73.10
2022-10-29T01:24:27.755Z,73.26
2022-10-29T01:27:24.654Z,73.01
2022-10-29T01:30:13.509Z,73.48
2022-10-29T01:32:56.035Z,73.54
2022-10-29T01:35:50.606Z,73.33
2022-10-29T01:38:29.522Z,73.30
2022-10-29T01:41:14.904Z,73.04
2022-10-29T01:44:11.777Z,73.04
2022-10-29T01:46:47.239Z,72.71
2022-10-29T01:49:22.790Z,72.54
2022-10-29T01:51:52.105Z,73.08
2022-10-29T01:54:18.533Z,73.64
2022-10-29T01:56:54.991Z,72.99
2022-10-29T01:59:35.641Z,73.42
2022-10-29T02:02:30.363Z,73.19
2022-10-29T02:05:04.751Z,74.48
2022-10-29T02:07:49.513Z,73.89
2022-10-29T02:10:43.370Z,73.81
2022-10-29T02:13:16.751Z,73.24
2022-10-29T02:15:50.098Z,73.52
2022-10-29T02:18:17.853Z,73.61
2022-10-29T02:20:46.492Z,73.69
2022-10-29T02:23:15.564Z,73.76
2022-10-29T02:25:42.509Z,73.37
2022-10-29T02:28:09.081Z,73.93
2022-10-29T02:30:35.731Z,73.22
2022-10-29T02:33:02.168Z,73.26
2022-10-29T02:35:28.661Z,73.21
2022-10-29T02:37:55.103Z,72.97
2022-10-29T02:40:21.524Z,73.26
2022-10-29T02:42:47.980Z,72.85
2022-10-29T02:45:14.537Z,72.73
2022-10-29T02:47:40.952Z,73.18
2022-10-29T02:50:08.298Z,73.07
2022-10-29T02:52:34.704Z,73.02
2022-10-29T02:55:01.140Z,73.57
2022-10-29T02:57:27.574Z,74.11
2022-10-29T02:59:54.002Z,73.97
2022-10-29T03:02:20.544Z,74.30
2022-10-29T03:04:47.085Z,74.06
2022-10-29T03:07:13.521Z,73.95
2022-10-29T03:09:39.956Z,73.98
2022-10-29T03:12:06.890Z,73.98
2022-10-29T03:14:33.316Z,74.29
2022-10-29T03:16:59.789Z,73.94
2022-10-29T03:19:26.196Z,74.24
2022-10-29T03:21:52.664Z,74.16
2022-10-29T03:24:19.124Z,74.57
2022-10-29T03:26:45.560Z,74.65
2022-10-29T03:29:11.977Z,74.56
2022-10-29T03:31:38.410Z,74.73
2022-10-29T03:34:04.861Z,74.80
2022-10-29T03:36:31.368Z,74.61
2022-10-29T03:38:57.807Z,74.15
2022-10-29T03:41:24.253Z,73.98
2022-10-29T03:43:51.097Z,74.01
2022-10-29T03:46:17.661Z,73.89
2022-10-29T03:48:44.102Z,73.52
2022-10-29T03:51:10.742Z,73.33
2022-10-29T03:53:37.538Z,73.37
2022-10-29T03:56:04.861Z,73.33
2022-10-29T03:58:31.405Z,73.26
2022-10-29T04:01:10.139Z,74.11
2022-10-29T04:03:41.253Z,74.35
2022-10-29T04:06:14.497Z,74.23
2022-10-29T04:08:42.085Z,74.04
2022-10-29T04:11:13.596Z,73.59
2022-10-29T04:13:40.219Z,73.79
2022-10-29T04:16:07.072Z,73.97
2022-10-29T04:18:33.619Z,74.62
2022-10-29T04:26:48.111Z,74.58
2022-10-29T04:29:24.861Z,74.80
2022-10-29T04:31:51.295Z,75.20
2022-10-29T04:34:17.761Z,75.36
2022-10-29T04:36:44.214Z,74.94
2022-10-29T04:39:10.629Z,74.42
2022-10-29T04:41:37.077Z,73.76
2022-10-29T04:44:03.602Z,73.99
2022-10-29T04:46:30.062Z,74.38
2022-10-29T04:48:56.592Z,74.78
2022-10-29T04:51:26.036Z,73.77
2022-10-29T04:53:53.202Z,74.06
2022-10-29T04:56:19.781Z,73.63
2022-10-29T04:58:46.269Z,73.51
2022-10-29T05:01:12.948Z,73.93
2022-10-29T05:03:39.575Z,73.79
2022-10-29T05:06:06.630Z,73.63
2022-10-29T05:08:33.654Z,74.07
2022-10-29T05:11:06.736Z,73.83
2022-10-29T05:13:34.248Z,74.33
2022-10-29T05:16:01.052Z,74.02
2022-10-29T05:18:27.514Z,74.08
2022-10-29T05:20:55.698Z,74.68
2022-10-29T05:23:23.095Z,74.29
2022-10-29T05:25:51.886Z,73.28
2022-10-29T05:28:22.030Z,73.24
2022-10-29T05:30:50.815Z,72.93
2022-10-29T05:33:22.195Z,73.22
2022-10-29T05:35:48.728Z,73.42
2022-10-29T05:38:15.912Z,73.86
2022-10-29T05:40:44.898Z,73.06
2022-10-29T05:43:13.794Z,72.84
2022-10-29T05:45:41.527Z,73.41
2022-10-29T05:48:09.809Z,72.85
2022-10-29T05:50:36.531Z,73.08
2022-10-29T05:53:06.570Z,72.70
2022-10-29T05:55:35.123Z,73.12
2022-10-29T05:58:06.570Z,73.22
2022-10-29T06:00:37.362Z,73.26
2022-10-29T06:03:04.029Z,72.81
2022-10-29T06:05:30.543Z,72.52
2022-10-29T06:07:59.331Z,72.77
2022-10-29T06:10:29.007Z,73.10
2022-10-29T06:12:55.672Z,73.93
2022-10-29T06:15:22.828Z,74.67
2022-10-29T06:17:50.084Z,74.33
2022-10-29T06:20:20.854Z,73.99
2022-10-29T06:22:48.075Z,73.71
2022-10-29T06:25:14.541Z,73.40
2022-10-29T06:27:40.973Z,73.62
2022-10-29T06:30:08.461Z,73.71
2022-10-29T06:32:34.905Z,74.16
2022-10-29T06:35:01.346Z,73.80
2022-10-29T06:37:29.590Z,74.46
2022-10-29T06:39:56.079Z,74.10
2022-10-29T06:42:22.504Z,74.00
2022-10-29T06:44:48.921Z,74.00
2022-10-29T06:47:15.344Z,74.08
2022-10-29T06:49:41.785Z,73.94
2022-10-29T06:52:08.235Z,74.06
2022-10-29T06:54:34.765Z,73.59
2022-10-29T06:57:01.204Z,73.50
2022-10-29T06:59:27.620Z,73.08
2022-10-29T07:01:54.100Z,73.60
2022-10-29T07:04:21.105Z,73.54
2022-10-29T07:06:47.634Z,73.68
2022-10-29T07:09:14.207Z,73.81
2022-10-29T07:11:40.734Z,74.21
2022-10-29T07:14:09.619Z,74.20
2022-10-29T07:16:36.880Z,73.55
2022-10-29T07:19:04.677Z,73.77
2022-10-29T07:21:31.343Z,73.34
2022-10-29T07:23:57.786Z,73.17
2022-10-29T07:26:24.296Z,73.16
2022-10-29T07:28:50.769Z,73.12
2022-10-29T07:31:17.279Z,73.41
2022-10-29T07:33:43.813Z,73.19
2022-10-29T07:36:10.243Z,73.22
2022-10-29T07:38:36.690Z,73.25
2022-10-29T07:41:03.141Z,73.30
2022-10-29T07:43:29.569Z,73.53
2022-10-29T07:45:56.041Z,73.85
2022-10-29T07:48:22.637Z,74.14
2022-10-29T07:50:49.868Z,73.67
2022-10-29T07:53:16.524Z,74.05
2022-10-29T07:55:42.976Z,74.03
2022-10-29T07:58:12.355Z,73.54
2022-10-29T08:00:41.308Z,73.36
2022-10-29T08:03:07.903Z,73.21
2022-10-29T08:05:34.794Z,73.32
2022-10-29T08:08:01.332Z,72.89
2022-10-29T08:10:29.901Z,72.91
2022-10-29T08:12:59.974Z,72.88
2022-10-29T08:15:30.759Z,73.21
2022-10-29T08:17:58.277Z,73.34
2022-10-29T08:20:28.138Z,73.04
2022-10-29T08:22:55.164Z,72.87
2022-10-29T08:25:21.993Z,72.31
2022-10-29T08:28:05.513Z,72.47
2022-10-29T08:30:32.874Z,72.95
2022-10-29T08:33:00.295Z,72.95
2022-10-29T08:35:27.969Z,72.90
2022-10-29T08:37:54.534Z,72.80
2022-10-29T08:40:29.624Z,72.99
2022-10-29T08:43:36.295Z,73.58
2022-10-29T08:46:03.704Z,73.40
2022-10-29T08:48:58.145Z,73.31
2022-10-29T08:51:34.316Z,73.16
2022-10-29T08:54:25.614Z,73.08
2022-10-29T08:56:54.820Z,73.26
2022-10-29T08:59:24.829Z,73.31
2022-10-29T09:01:53.502Z,72.85
2022-10-29T09:04:32.936Z,72.85
2022-10-29T09:07:41.519Z,73.70
2022-10-29T09:10:23.090Z,73.51
2022-10-29T09:13:18.405Z,73.69
2022-10-29T09:16:27.979Z,73.71
2022-10-29T09:19:40.473Z,73.44
2022-10-29T09:22:24.537Z,73.09
2022-10-29T09:25:15.000Z,73.10
2022-10-29T09:28:25.649Z,72.84
2022-10-29T09:31:16.242Z,72.87
2022-10-29T09:33:48.186Z,72.58
2022-10-29T09:36:18.984Z,72.62
2022-10-29T09:39:04.156Z,72.58
2022-10-29T09:41:34.210Z,72.57
2022-10-29T09:44:33.417Z,72.31
2022-10-29T09:47:21.246Z,72.60
2022-10-29T09:50:08.697Z,72.55
2022-10-29T09:52:41.266Z,72.28
2022-10-29T09:55:23.065Z,72.05
2022-10-29T09:57:49.993Z,71.94
2022-10-29T10:00:29.936Z,71.87
2022-10-29T10:03:02.202Z,71.94
2022-10-29T10:05:34.625Z,71.87
2022-10-29T10:08:14.560Z,71.23
2022-10-29T10:11:05.054Z,71.09
2022-10-29T10:13:35.622Z,71.35
2022-10-29T10:16:06.017Z,71.09
2022-10-29T10:18:32.463Z,71.70
2022-10-29T10:21:23.661Z,71.31
2022-10-29T10:23:52.726Z,70.98
2022-10-29T10:26:42.843Z,70.42
2022-10-29T10:29:18.563Z,70.59
2022-10-29T10:31:55.211Z,70.15
2022-10-29T10:34:35.661Z,69.80
2022-10-29T10:37:17.272Z,69.38
2022-10-29T10:39:49.923Z,69.46
2022-10-29T10:42:32.328Z,69.07
2022-10-29T10:45:22.837Z,68.80
2022-10-29T10:47:57.309Z,68.26
2022-10-29T10:50:33.577Z,67.92
2022-10-29T10:53:06.604Z,67.86
2022-10-29T10:55:40.392Z,67.50
2022-10-29T10:58:29.471Z,67.26
2022-10-29T11:01:11.984Z,67.17
2022-10-29T11:03:47.100Z,67.14
2022-10-29T11:06:31.818Z,66.06
2022-10-29T11:09:32.003Z,65.09
2022-10-29T11:12:10.999Z,66.15
2022-10-29T11:14:52.579Z,65.89
2022-10-29T11:17:32.014Z,65.26
2022-10-29T11:20:23.743Z,64.53
2022-10-29T11:23:23.545Z,65.00
2022-10-29T11:26:22.088Z,63.23
2022-10-29T11:29:22.850Z,64.00
2022-10-29T11:32:20.642Z,63.97
2022-10-29T11:35:24.084Z,63.49
2022-10-29T11:38:05.941Z,64.12
2022-10-29T11:40:49.830Z,64.00
2022-10-29T11:43:20.905Z,64.35
2022-10-29T11:45:57.525Z,64.33
2022-10-29T11:48:58.094Z,63.89
2022-10-29T11:51:53.927Z,62.95
2022-10-29T11:54:41.321Z,62.38
2022-10-29T11:57:44.198Z,61.86
2022-10-29T12:00:22.155Z,61.96
2022-10-29T12:03:33.298Z,62.03
2022-10-29T12:06:32.507Z,61.96
2022-10-29T12:09:34.697Z,62.32
2022-10-29T12:12:21.373Z,61.98
2022-10-29T12:15:01.441Z,60.50
2022-10-29T12:17:49.672Z,61.64
2022-10-29T12:20:29.425Z,60.92
2022-10-29T12:23:25.112Z,59.33
2022-10-29T12:26:24.274Z,59.40
2022-10-29T12:29:03.980Z,59.22
2022-10-29T12:32:14.104Z,57.86
2022-10-29T12:35:06.448Z,59.04
2022-10-29T12:38:23.434Z,58.75
2022-10-29T12:41:03.879Z,58.67
2022-10-29T12:43:36.313Z,58.97
2022-10-29T12:46:35.928Z,58.74
2022-10-29T12:49:56.558Z,58.40
2022-10-29T12:52:47.321Z,57.77
2022-10-29T12:55:16.949Z,58.77
2022-10-29T12:57:43.418Z,58.25
2022-10-29T13:00:30.902Z,57.11
2022-10-29T13:02:58.400Z,58.02
2022-10-29T13:05:34.277Z,58.34
2022-10-29T13:08:03.418Z,57.85
2022-10-29T13:10:32.866Z,57.29
2022-10-29T13:12:59.223Z,58.05
2022-10-29T13:15:49.257Z,59.00
2022-10-29T13:18:27.526Z,59.91
2022-10-29T13:20:55.395Z,59.42
2022-10-29T13:23:21.749Z,59.71
2022-10-29T13:26:53.898Z,60.38
2022-10-29T13:30:25.667Z,60.64
2022-10-29T13:32:56.084Z,60.98
2022-10-29T13:35:22.626Z,61.07
2022-10-29T13:38:13.416Z,60.82
2022-10-29T13:41:40.092Z,59.98
2022-10-29T13:44:14.455Z,60.41
2022-10-29T13:47:01.780Z,60.51
2022-10-29T13:49:37.007Z,61.01
2022-10-29T13:52:16.287Z,61.47
2022-10-29T13:55:01.099Z,61.47
2022-10-29T13:57:50.792Z,61.60
2022-10-29T14:00:20.830Z,61.50
2022-10-29T14:03:22.402Z,60.95
2022-10-29T14:06:08.925Z,61.28
2022-10-29T14:08:44.174Z,61.01
2022-10-29T14:11:25.219Z,61.02
2022-10-29T14:14:00.845Z,61.01
2022-10-29T14:16:32.455Z,61.22
2022-10-29T14:19:13.613Z,61.13
2022-10-29T14:21:40.962Z,61.48
2022-10-29T14:24:10.949Z,61.30
2022-10-29T14:26:42.318Z,61.48
2022-10-29T14:29:23.633Z,61.37
2022-10-29T14:32:15.452Z,61.08
2022-10-29T14:34:45.099Z,61.10
2022-10-29T14:37:41.216Z,61.21
2022-10-29T14:40:22.342Z,61.73
2022-10-29T14:42:56.416Z,61.68
2022-10-29T14:45:28.541Z,62.26
2022-10-29T14:48:05.288Z,62.43
2022-10-29T14:50:31.871Z,62.74
2022-10-29T14:53:03.712Z,62.69
2022-10-29T14:55:46.674Z,62.81
2022-10-29T14:58:20.830Z,63.45
2022-10-29T15:01:02.049Z,63.43
2022-10-29T15:03:33.989Z,62.84
2022-10-29T15:06:26.281Z,62.58
2022-10-29T15:08:58.807Z,63.21
2022-10-29T15:11:57.669Z,63.65
2022-10-29T15:15:27.171Z,64.09
2022-10-29T15:17:59.622Z,64.32
2022-10-29T15:20:40.776Z,64.09
2022-10-29T15:23:23.424Z,63.89
2022-10-29T15:25:58.074Z,64.14
2022-10-29T15:28:28.898Z,64.46
2022-10-29T15:30:55.679Z,64.43
2022-10-29T15:33:27.813Z,64.80
2022-10-29T15:35:59.746Z,65.48
2022-10-29T15:38:35.257Z,65.59
2022-10-29T15:41:07.758Z,65.63
2022-10-29T15:43:56.912Z,65.69
2022-10-29T15:46:48.025Z,65.65
2022-10-29T15:49:15.921Z,65.56
2022-10-29T15:51:42.809Z,65.56
2022-10-29T15:54:16.475Z,65.33
2022-10-29T15:56:43.121Z,65.61
2022-10-29T15:59:14.151Z,65.97
2022-10-29T16:01:41.026Z,66.45
2022-10-29T16:04:09.349Z,66.45
2022-10-29T16:06:36.111Z,66.42
2022-10-29T16:09:03.149Z,66.78
2022-10-29T16:11:29.660Z,66.65
2022-10-29T16:13:56.098Z,66.57
2022-10-29T16:16:25.128Z,66.81
2022-10-29T16:18:52.612Z,67.20
2022-10-29T16:21:22.968Z,67.21
2022-10-29T16:23:51.267Z,67.41
2022-10-29T16:26:21.626Z,67.01
2022-10-29T16:28:48.312Z,66.98
2022-10-29T16:31:29.636Z,67.33
2022-10-29T16:34:04.111Z,67.82
2022-10-29T16:36:30.556Z,68.12
2022-10-29T16:38:57.040Z,68.00
2022-10-29T16:41:23.582Z,68.20
2022-10-29T16:43:50.128Z,68.40
2022-10-29T16:46:17.075Z,68.43
2022-10-29T16:48:44.025Z,68.21
2022-10-29T16:51:10.581Z,68.66
2022-10-29T16:53:37.037Z,68.71
2022-10-29T16:56:04.538Z,68.74
2022-10-29T16:58:31.063Z,68.88
2022-10-29T17:01:06.645Z,68.80
2022-10-29T17:03:34.201Z,68.87
2022-10-29T17:06:08.115Z,68.70
2022-10-29T17:08:36.439Z,68.88
2022-10-29T17:11:06.306Z,68.93
2022-10-29T17:13:34.774Z,69.18
2022-10-29T17:16:05.599Z,69.50
2022-10-29T17:18:32.377Z,69.61
2022-10-29T17:21:01.156Z,69.61
2022-10-29T17:23:28.978Z,69.83
2022-10-29T17:25:57.933Z,69.76
2022-10-29T17:28:27.209Z,70.02
2022-10-29T17:30:54.019Z,70.27
2022-10-29T17:33:20.733Z,70.74
2022-10-29T17:35:47.644Z,71.06
2022-10-29T17:38:14.247Z,71.20
2022-10-29T17:40:44.252Z,71.40
2022-10-29T17:43:10.741Z,71.50
2022-10-29T17:45:37.223Z,71.38
2022-10-29T17:48:03.914Z,71.05
2022-10-29T17:50:30.410Z,71.17
2022-10-29T17:52:57.783Z,71.00
2022-10-29T17:55:24.510Z,70.83
2022-10-29T17:57:50.942Z,71.75
2022-10-29T18:00:17.763Z,71.40
2022-10-29T18:02:44.243Z,71.37
2022-10-29T18:05:10.810Z,71.13
2022-10-29T18:07:37.312Z,71.16
2022-10-29T18:10:04.310Z,71.27
2022-10-29T18:12:30.809Z,71.01
2022-10-29T18:14:57.270Z,71.17
2022-10-29T18:17:23.871Z,71.62
2022-10-29T18:19:50.330Z,71.57
2022-10-29T18:22:16.788Z,71.41
2022-10-29T18:24:43.221Z,71.69
2022-10-29T18:27:09.645Z,71.62
2022-10-29T18:29:36.137Z,71.75
2022-10-29T18:32:02.597Z,71.64
2022-10-29T18:34:29.170Z,72.05
2022-10-29T18:36:55.642Z,71.71
2022-10-29T18:39:22.102Z,71.89
2022-10-29T18:41:48.539Z,72.09
2022-10-29T18:44:14.985Z,72.37
2022-10-29T18:46:41.532Z,72.07
2022-10-29T18:49:12.890Z,71.83
2022-10-29T18:51:39.820Z,72.32
2022-10-29T18:54:06.277Z,72.35
2022-10-29T18:56:32.800Z,72.53
2022-10-29T18:59:00.387Z,72.53
2022-10-29T19:01:31.912Z,72.32
2022-10-29T19:04:05.681Z,72.19
2022-10-29T19:06:35.170Z,71.84
2022-10-29T19:09:06.731Z,71.63
2022-10-29T19:11:33.257Z,71.81
2022-10-29T19:14:03.095Z,71.87
2022-10-29T19:16:32.107Z,72.49
2022-10-29T19:19:03.023Z,72.57
2022-10-29T19:21:30.689Z,72.27
2022-10-29T19:23:59.705Z,72.17
2022-10-29T19:26:30.637Z,72.45
2022-10-29T19:29:00.839Z,72.93
2022-10-29T19:31:30.142Z,73.04
2022-10-29T19:34:00.471Z,72.67
2022-10-29T19:36:28.967Z,72.73
2022-10-29T19:38:56.424Z,72.46
2022-10-29T19:41:23.705Z,72.46
2022-10-29T19:43:50.468Z,72.69
2022-10-29T19:46:22.677Z,72.76
2022-10-29T19:48:52.618Z,72.71
2022-10-29T19:51:20.802Z,72.98
2022-10-29T19:53:47.892Z,73.03
2022-10-29T19:56:16.629Z,72.74
2022-10-29T19:58:44.033Z,72.61
2022-10-29T20:01:17.479Z,72.36
2022-10-29T20:03:45.720Z,72.23
2022-10-29T20:06:12.631Z,72.48
2022-10-29T20:08:39.209Z,71.93
2022-10-29T20:11:06.724Z,72.10
2022-10-29T20:13:33.781Z,72.14
2022-10-29T20:16:01.294Z,72.77
2022-10-29T20:18:27.809Z,72.81
2022-10-29T20:20:56.339Z,72.66
2022-10-29T20:23:25.491Z,72.71
2022-10-29T20:25:52.128Z,72.38
2022-10-29T20:28:18.631Z,72.55
2022-10-29T20:30:45.145Z,73.00
2022-10-29T20:33:11.610Z,73.00
2022-10-29T20:35:38.174Z,72.86
2022-10-29T20:38:05.720Z,72.53
2022-10-29T20:40:32.260Z,72.54
2022-10-29T20:42:58.730Z,72.34
2022-10-29T20:45:25.411Z,72.45
2022-10-29T20:47:51.855Z,72.26
2022-10-29T20:50:18.352Z,73.00
2022-10-29T20:52:48.626Z,73.25
2022-10-29T20:55:16.249Z,73.19
2022-10-29T20:57:42.760Z,73.09
2022-10-29T21:00:10.221Z,72.81
2022-10-29T21:02:36.750Z,72.68
2022-10-29T21:05:03.693Z,72.80
2022-10-29T21:07:30.112Z,72.68
2022-10-29T21:09:56.557Z,72.96
2022-10-29T21:12:23.030Z,73.08
2022-10-29T21:14:49.476Z,73.47
2022-10-29T21:17:15.964Z,73.53
2022-10-29T21:19:42.450Z,73.48
2022-10-29T21:22:08.964Z,73.26
2022-10-29T21:24:35.715Z,73.58
2022-10-29T21:27:02.298Z,73.55
2022-10-29T21:29:28.777Z,73.12
2022-10-29T21:31:55.222Z,73.76
2022-10-29T21:34:22.726Z,73.99
2022-10-29T21:36:49.561Z,74.27
2022-10-29T21:39:16.019Z,73.90
2022-10-29T21:41:42.476Z,73.75
2022-10-29T21:44:08.914Z,73.04
2022-10-29T21:46:35.413Z,73.11
2022-10-29T21:49:02.042Z,73.69
2022-10-29T21:51:28.461Z,73.71
2022-10-29T21:53:55.063Z,74.08
2022-10-29T21:56:21.568Z,74.22
2022-10-29T21:58:52.237Z,74.06
2022-10-29T22:01:18.929Z,73.89
2022-10-29T22:03:47.398Z,73.63
2022-10-29T22:06:23.035Z,73.19
2022-10-29T22:08:59.163Z,72.86
2022-10-29T22:11:28.464Z,72.79
2022-10-29T22:13:55.252Z,73.00
2022-10-29T22:16:22.033Z,72.79
2022-10-29T22:18:49.784Z,72.82
2022-10-29T22:21:21.324Z,72.79
2022-10-29T22:23:54.331Z,73.00
2022-10-29T22:26:25.701Z,73.34
2022-10-29T22:28:52.504Z,73.65
2022-10-29T22:31:21.896Z,73.46
2022-10-29T22:33:49.429Z,73.81
2022-10-29T22:36:22.610Z,73.95
2022-10-29T22:38:54.471Z,74.10
2022-10-29T22:41:21.078Z,74.01
2022-10-29T22:43:47.934Z,74.11
2022-10-29T22:46:16.874Z,73.87
2022-10-29T22:48:43.964Z,73.66
2022-10-29T22:51:18.967Z,73.33
2022-10-29T22:53:46.230Z,73.26
2022-10-29T22:56:29.170Z,72.52
2022-10-29T22:58:56.804Z,73.16
2022-10-29T23:01:28.103Z,73.21
2022-10-29T23:03:55.336Z,73.26
2022-10-29T23:06:24.123Z,73.25
2022-10-29T23:08:53.817Z,73.23
2022-10-29T23:11:26.968Z,72.84
2022-10-29T23:13:57.310Z,72.83
2022-10-29T23:16:27.278Z,72.50
2022-10-29T23:19:00.839Z,72.09
2022-10-29T23:21:28.224Z,72.11
2022-10-29T23:23:56.134Z,72.57
2022-10-29T23:26:24.972Z,72.75
2022-10-29T23:28:51.808Z,72.62
2022-10-29T23:31:22.539Z,72.96
2022-10-29T23:33:52.686Z,73.28
2022-10-29T23:36:22.727Z,73.39
2022-10-29T23:38:58.235Z,73.18
2022-10-29T23:41:26.420Z,73.32
2022-10-29T23:43:52.986Z,73.61
2022-10-29T23:46:19.648Z,73.62
2022-10-29T23:48:46.091Z,73.78
2022-10-29T23:51:12.558Z,73.77
2022-10-29T23:53:39.086Z,74.21
2022-10-29T23:56:05.937Z,73.88
2022-10-29T23:58:32.535Z,73.80
